sensor_id;sensor_type;location;lat;lon;timestamp;temperature;humidity
22787;DHT22;63134;52.020;4.714;2023-07-24T00:01:53;19.90;89.90
22787;DHT22;63134;52.020;4.714;2023-07-24T00:04:38;19.90;90.30
22787;DHT22;63134;52.020;4.714;2023-07-24T00:07:24;19.90;90.30
22787;DHT22;63134;52.020;4.714;2023-07-24T00:10:10;19.90;90.00
22787;DHT22;63134;52.020;4.714;2023-07-24T00:12:56;19.90;90.10
22787;DHT22;63134;52.020;4.714;2023-07-24T00:15:41;19.90;90.30
22787;DHT22;63134;52.020;4.714;2023-07-24T00:18:27;19.80;90.50
22787;DHT22;63134;52.020;4.714;2023-07-24T00:21:12;19.80;90.30
22787;DHT22;63134;52.020;4.714;2023-07-24T00:23:58;19.80;90.40
22787;DHT22;63134;52.020;4.714;2023-07-24T00:26:47;19.80;90.40
22787;DHT22;63134;52.020;4.714;2023-07-24T00:29:32;19.80;90.50
22787;DHT22;63134;52.020;4.714;2023-07-24T00:32:18;19.70;90.40
22787;DHT22;63134;52.020;4.714;2023-07-24T00:35:05;19.70;90.60
22787;DHT22;63134;52.020;4.714;2023-07-24T00:37:53;19.70;90.60
22787;DHT22;63134;52.020;4.714;2023-07-24T00:40:39;19.50;90.90
22787;DHT22;63134;52.020;4.714;2023-07-24T00:43:25;19.50;91.10
22787;DHT22;63134;52.020;4.714;2023-07-24T00:46:11;19.40;91.40
22787;DHT22;63134;52.020;4.714;2023-07-24T00:48:56;19.40;91.90
22787;DHT22;63134;52.020;4.714;2023-07-24T00:51:42;19.40;91.90
22787;DHT22;63134;52.020;4.714;2023-07-24T00:54:31;19.50;91.80
22787;DHT22;63134;52.020;4.714;2023-07-24T00:57:20;19.40;91.80
22787;DHT22;63134;52.020;4.714;2023-07-24T01:00:07;19.40;92.20
22787;DHT22;63134;52.020;4.714;2023-07-24T01:02:54;19.40;92.20
22787;DHT22;63134;52.020;4.714;2023-07-24T01:05:41;19.40;92.60
22787;DHT22;63134;52.020;4.714;2023-07-24T01:08:26;19.50;92.70
22787;DHT22;63134;52.020;4.714;2023-07-24T01:11:26;19.60;92.60
22787;DHT22;63134;52.020;4.714;2023-07-24T01:17:05;19.50;92.00
22787;DHT22;63134;52.020;4.714;2023-07-24T01:19:56;19.40;92.50
22787;DHT22;63134;52.020;4.714;2023-07-24T01:23:38;19.40;93.10
22787;DHT22;63134;52.020;4.714;2023-07-24T01:26:16;19.40;93.00
22787;DHT22;63134;52.020;4.714;2023-07-24T01:29:02;19.30;92.90
22787;DHT22;63134;52.020;4.714;2023-07-24T01:31:48;19.30;93.20
22787;DHT22;63134;52.020;4.714;2023-07-24T01:34:33;19.30;93.70
22787;DHT22;63134;52.020;4.714;2023-07-24T01:37:20;19.30;94.20
22787;DHT22;63134;52.020;4.714;2023-07-24T01:40:07;19.40;93.90
22787;DHT22;63134;52.020;4.714;2023-07-24T01:42:53;19.30;93.60
22787;DHT22;63134;52.020;4.714;2023-07-24T01:45:39;19.30;93.80
22787;DHT22;63134;52.020;4.714;2023-07-24T01:48:25;19.40;93.90
22787;DHT22;63134;52.020;4.714;2023-07-24T01:51:12;19.40;93.80
22787;DHT22;63134;52.020;4.714;2023-07-24T01:53:58;19.30;93.70
22787;DHT22;63134;52.020;4.714;2023-07-24T01:56:43;19.30;93.90
22787;DHT22;63134;52.020;4.714;2023-07-24T01:59:29;19.30;94.10
22787;DHT22;63134;52.020;4.714;2023-07-24T02:02:15;19.30;94.10
22787;DHT22;63134;52.020;4.714;2023-07-24T02:05:00;19.40;94.10
22787;DHT22;63134;52.020;4.714;2023-07-24T02:07:46;19.40;94.10
22787;DHT22;63134;52.020;4.714;2023-07-24T02:10:32;19.40;94.30
22787;DHT22;63134;52.020;4.714;2023-07-24T02:13:18;19.50;94.20
22787;DHT22;63134;52.020;4.714;2023-07-24T02:16:07;19.40;94.00
22787;DHT22;63134;52.020;4.714;2023-07-24T02:18:53;19.50;94.00
22787;DHT22;63134;52.020;4.714;2023-07-24T02:21:39;19.50;94.00
22787;DHT22;63134;52.020;4.714;2023-07-24T02:24:26;19.50;93.90
22787;DHT22;63134;52.020;4.714;2023-07-24T02:27:25;19.50;93.80
22787;DHT22;63134;52.020;4.714;2023-07-24T02:30:11;19.50;93.70
22787;DHT22;63134;52.020;4.714;2023-07-24T02:32:57;19.60;93.60
22787;DHT22;63134;52.020;4.714;2023-07-24T02:35:43;19.60;93.50
22787;DHT22;63134;52.020;4.714;2023-07-24T02:38:32;19.50;93.50
22787;DHT22;63134;52.020;4.714;2023-07-24T02:41:18;19.50;93.50
22787;DHT22;63134;52.020;4.714;2023-07-24T02:44:03;19.50;93.50
22787;DHT22;63134;52.020;4.714;2023-07-24T02:46:49;19.50;93.60
22787;DHT22;63134;52.020;4.714;2023-07-24T02:49:34;19.50;93.60
22787;DHT22;63134;52.020;4.714;2023-07-24T02:52:20;19.40;93.60
22787;DHT22;63134;52.020;4.714;2023-07-24T02:55:05;19.40;93.70
22787;DHT22;63134;52.020;4.714;2023-07-24T02:57:53;19.40;93.70
22787;DHT22;63134;52.020;4.714;2023-07-24T03:00:39;19.40;93.50
22787;DHT22;63134;52.020;4.714;2023-07-24T03:03:25;19.40;93.50
22787;DHT22;63134;52.020;4.714;2023-07-24T03:06:11;19.40;93.60
22787;DHT22;63134;52.020;4.714;2023-07-24T03:08:57;19.40;93.70
22787;DHT22;63134;52.020;4.714;2023-07-24T03:11:42;19.40;93.70
22787;DHT22;63134;52.020;4.714;2023-07-24T03:14:28;19.40;93.50
22787;DHT22;63134;52.020;4.714;2023-07-24T03:17:14;19.40;93.40
22787;DHT22;63134;52.020;4.714;2023-07-24T03:20:07;19.40;93.20
22787;DHT22;63134;52.020;4.714;2023-07-24T03:22:53;19.40;93.20
22787;DHT22;63134;52.020;4.714;2023-07-24T03:25:38;19.40;93.10
22787;DHT22;63134;52.020;4.714;2023-07-24T03:28:24;19.40;93.00
22787;DHT22;63134;52.020;4.714;2023-07-24T03:31:09;19.40;93.00
22787;DHT22;63134;52.020;4.714;2023-07-24T03:33:55;19.30;92.90
22787;DHT22;63134;52.020;4.714;2023-07-24T03:36:41;19.30;93.00
22787;DHT22;63134;52.020;4.714;2023-07-24T03:39:28;19.30;92.90
22787;DHT22;63134;52.020;4.714;2023-07-24T03:42:27;19.30;93.00
22787;DHT22;63134;52.020;4.714;2023-07-24T03:45:13;19.30;93.00
22787;DHT22;63134;52.020;4.714;2023-07-24T03:47:59;19.30;93.00
22787;DHT22;63134;52.020;4.714;2023-07-24T03:50:45;19.30;93.00
22787;DHT22;63134;52.020;4.714;2023-07-24T03:53:30;19.30;93.10
22787;DHT22;63134;52.020;4.714;2023-07-24T03:56:18;19.30;93.10
22787;DHT22;63134;52.020;4.714;2023-07-24T03:59:04;19.30;93.00
22787;DHT22;63134;52.020;4.714;2023-07-24T04:01:50;19.30;93.10
22787;DHT22;63134;52.020;4.714;2023-07-24T04:04:38;19.30;93.10
22787;DHT22;63134;52.020;4.714;2023-07-24T04:07:25;19.30;93.10
22787;DHT22;63134;52.020;4.714;2023-07-24T04:10:13;19.20;92.90
22787;DHT22;63134;52.020;4.714;2023-07-24T04:12:59;19.20;93.00
22787;DHT22;63134;52.020;4.714;2023-07-24T04:15:44;19.30;93.30
22787;DHT22;63134;52.020;4.714;2023-07-24T04:18:30;19.30;93.20
22787;DHT22;63134;52.020;4.714;2023-07-24T04:21:22;19.40;93.20
22787;DHT22;63134;52.020;4.714;2023-07-24T04:24:08;19.40;93.00
22787;DHT22;63134;52.020;4.714;2023-07-24T04:26:54;19.40;92.90
22787;DHT22;63134;52.020;4.714;2023-07-24T04:29:39;19.30;92.60
22787;DHT22;63134;52.020;4.714;2023-07-24T04:32:26;19.30;92.60
22787;DHT22;63134;52.020;4.714;2023-07-24T04:35:13;19.20;92.70
22787;DHT22;63134;52.020;4.714;2023-07-24T04:37:58;19.10;92.70
22787;DHT22;63134;52.020;4.714;2023-07-24T04:40:44;19.10;92.80
22787;DHT22;63134;52.020;4.714;2023-07-24T04:43:30;19.00;93.00
22787;DHT22;63134;52.020;4.714;2023-07-24T04:46:16;19.10;93.40
22787;DHT22;63134;52.020;4.714;2023-07-24T04:49:01;19.10;93.20
22787;DHT22;63134;52.020;4.714;2023-07-24T04:51:49;19.20;93.00
22787;DHT22;63134;52.020;4.714;2023-07-24T04:54:35;19.30;92.80
22787;DHT22;63134;52.020;4.714;2023-07-24T04:57:23;19.40;92.50
22787;DHT22;63134;52.020;4.714;2023-07-24T05:00:09;19.40;91.50
22787;DHT22;63134;52.020;4.714;2023-07-24T05:02:55;19.50;90.40
22787;DHT22;63134;52.020;4.714;2023-07-24T05:05:40;19.50;90.20
22787;DHT22;63134;52.020;4.714;2023-07-24T05:08:31;19.60;90.10
22787;DHT22;63134;52.020;4.714;2023-07-24T05:11:16;19.60;87.80
22787;DHT22;63134;52.020;4.714;2023-07-24T05:14:02;19.60;85.80
22787;DHT22;63134;52.020;4.714;2023-07-24T05:16:48;19.60;87.00
22787;DHT22;63134;52.020;4.714;2023-07-24T05:19:39;19.60;85.40
22787;DHT22;63134;52.020;4.714;2023-07-24T05:22:25;19.60;86.30
22787;DHT22;63134;52.020;4.714;2023-07-24T05:25:11;19.60;86.00
22787;DHT22;63134;52.020;4.714;2023-07-24T05:27:57;19.50;86.00
22787;DHT22;63134;52.020;4.714;2023-07-24T05:30:43;19.40;86.30
22787;DHT22;63134;52.020;4.714;2023-07-24T05:33:29;19.40;86.50
22787;DHT22;63134;52.020;4.714;2023-07-24T05:36:14;19.40;86.70
22787;DHT22;63134;52.020;4.714;2023-07-24T05:39:00;19.50;86.70
22787;DHT22;63134;52.020;4.714;2023-07-24T05:41:48;19.60;86.20
22787;DHT22;63134;52.020;4.714;2023-07-24T05:44:34;19.60;86.20
22787;DHT22;63134;52.020;4.714;2023-07-24T05:47:22;19.60;86.20
22787;DHT22;63134;52.020;4.714;2023-07-24T05:50:08;19.60;85.70
22787;DHT22;63134;52.020;4.714;2023-07-24T05:52:54;19.50;85.60
22787;DHT22;63134;52.020;4.714;2023-07-24T05:55:42;19.50;85.70
22787;DHT22;63134;52.020;4.714;2023-07-24T05:58:28;19.50;85.70
22787;DHT22;63134;52.020;4.714;2023-07-24T06:01:14;19.60;86.40
22787;DHT22;63134;52.020;4.714;2023-07-24T06:04:00;19.60;85.80
22787;DHT22;63134;52.020;4.714;2023-07-24T06:06:46;19.70;85.50
22787;DHT22;63134;52.020;4.714;2023-07-24T06:09:31;19.90;85.60
22787;DHT22;63134;52.020;4.714;2023-07-24T06:12:20;20.10;85.10
22787;DHT22;63134;52.020;4.714;2023-07-24T06:15:09;20.30;84.30
22787;DHT22;63134;52.020;4.714;2023-07-24T06:17:55;20.40;82.20
22787;DHT22;63134;52.020;4.714;2023-07-24T06:20:40;20.60;80.00
22787;DHT22;63134;52.020;4.714;2023-07-24T06:23:26;20.80;80.50
22787;DHT22;63134;52.020;4.714;2023-07-24T06:26:13;20.80;78.70
22787;DHT22;63134;52.020;4.714;2023-07-24T06:28:59;21.00;79.00
22787;DHT22;63134;52.020;4.714;2023-07-24T06:31:44;21.10;78.20
22787;DHT22;63134;52.020;4.714;2023-07-24T06:34:30;21.20;78.10
22787;DHT22;63134;52.020;4.714;2023-07-24T06:37:15;21.20;77.00
22787;DHT22;63134;52.020;4.714;2023-07-24T06:40:09;21.10;76.40
22787;DHT22;63134;52.020;4.714;2023-07-24T06:42:54;21.00;77.30
22787;DHT22;63134;52.020;4.714;2023-07-24T06:45:43;21.00;76.30
22787;DHT22;63134;52.020;4.714;2023-07-24T06:48:28;21.10;76.20
22787;DHT22;63134;52.020;4.714;2023-07-24T06:51:14;21.20;76.80
22787;DHT22;63134;52.020;4.714;2023-07-24T06:53:59;21.40;76.00
22787;DHT22;63134;52.020;4.714;2023-07-24T06:56:45;21.60;75.20
22787;DHT22;63134;52.020;4.714;2023-07-24T06:59:31;21.60;74.00
22787;DHT22;63134;52.020;4.714;2023-07-24T07:02:16;21.60;74.20
22787;DHT22;63134;52.020;4.714;2023-07-24T07:05:02;21.50;74.10
22787;DHT22;63134;52.020;4.714;2023-07-24T07:07:48;21.30;74.50
22787;DHT22;63134;52.020;4.714;2023-07-24T07:10:34;21.30;75.40
22787;DHT22;63134;52.020;4.714;2023-07-24T07:13:19;21.10;75.10
22787;DHT22;63134;52.020;4.714;2023-07-24T07:16:05;21.10;75.90
22787;DHT22;63134;52.020;4.714;2023-07-24T07:18:52;21.10;76.20
22787;DHT22;63134;52.020;4.714;2023-07-24T07:21:37;21.10;76.50
22787;DHT22;63134;52.020;4.714;2023-07-24T07:24:26;21.20;76.20
22787;DHT22;63134;52.020;4.714;2023-07-24T07:27:12;21.20;76.60
22787;DHT22;63134;52.020;4.714;2023-07-24T07:29:57;21.30;76.00
22787;DHT22;63134;52.020;4.714;2023-07-24T07:32:45;21.20;76.20
22787;DHT22;63134;52.020;4.714;2023-07-24T07:35:32;21.20;75.90
22787;DHT22;63134;52.020;4.714;2023-07-24T07:38:17;21.20;75.90
22787;DHT22;63134;52.020;4.714;2023-07-24T07:41:06;21.30;75.80
22787;DHT22;63134;52.020;4.714;2023-07-24T07:43:57;21.50;75.80
22787;DHT22;63134;52.020;4.714;2023-07-24T07:46:42;21.70;74.90
22787;DHT22;63134;52.020;4.714;2023-07-24T07:49:28;21.90;75.00
22787;DHT22;63134;52.020;4.714;2023-07-24T07:52:15;22.10;73.70
22787;DHT22;63134;52.020;4.714;2023-07-24T07:55:02;22.20;73.50
22787;DHT22;63134;52.020;4.714;2023-07-24T07:57:48;22.30;73.40
22787;DHT22;63134;52.020;4.714;2023-07-24T08:00:34;22.30;73.50
22787;DHT22;63134;52.020;4.714;2023-07-24T08:03:19;22.40;73.70
22787;DHT22;63134;52.020;4.714;2023-07-24T08:06:06;22.50;73.30
22787;DHT22;63134;52.020;4.714;2023-07-24T08:08:51;22.50;73.50
22787;DHT22;63134;52.020;4.714;2023-07-24T08:11:37;22.50;74.30
22787;DHT22;63134;52.020;4.714;2023-07-24T08:14:23;22.50;74.60
22787;DHT22;63134;52.020;4.714;2023-07-24T08:17:09;22.70;73.90
22787;DHT22;63134;52.020;4.714;2023-07-24T08:19:55;22.70;71.70
22787;DHT22;63134;52.020;4.714;2023-07-24T08:22:40;22.60;72.10
22787;DHT22;63134;52.020;4.714;2023-07-24T08:25:26;22.70;72.50
22787;DHT22;63134;52.020;4.714;2023-07-24T08:28:12;22.70;72.00
22787;DHT22;63134;52.020;4.714;2023-07-24T08:30:58;22.90;71.60
22787;DHT22;63134;52.020;4.714;2023-07-24T08:33:44;23.20;70.00
22787;DHT22;63134;52.020;4.714;2023-07-24T08:36:30;23.30;69.60
22787;DHT22;63134;52.020;4.714;2023-07-24T08:39:16;23.40;68.50
22787;DHT22;63134;52.020;4.714;2023-07-24T08:42:11;23.50;68.50
22787;DHT22;63134;52.020;4.714;2023-07-24T08:44:58;23.60;67.90
22787;DHT22;63134;52.020;4.714;2023-07-24T08:47:44;23.70;66.90
22787;DHT22;63134;52.020;4.714;2023-07-24T08:50:30;23.60;67.00
22787;DHT22;63134;52.020;4.714;2023-07-24T08:53:18;23.40;67.80
22787;DHT22;63134;52.020;4.714;2023-07-24T08:56:10;23.30;67.70
22787;DHT22;63134;52.020;4.714;2023-07-24T08:58:58;23.20;68.00
22787;DHT22;63134;52.020;4.714;2023-07-24T09:01:43;23.40;67.50
22787;DHT22;63134;52.020;4.714;2023-07-24T09:04:29;23.30;67.50
22787;DHT22;63134;52.020;4.714;2023-07-24T09:07:15;23.20;67.30
22787;DHT22;63134;52.020;4.714;2023-07-24T09:10:01;23.20;66.80
22787;DHT22;63134;52.020;4.714;2023-07-24T09:12:46;23.30;65.90
22787;DHT22;63134;52.020;4.714;2023-07-24T09:15:50;23.30;66.30
22787;DHT22;63134;52.020;4.714;2023-07-24T09:18:42;23.20;66.60
22787;DHT22;63134;52.020;4.714;2023-07-24T09:21:33;23.50;66.90
22787;DHT22;63134;52.020;4.714;2023-07-24T09:24:19;24.10;66.00
22787;DHT22;63134;52.020;4.714;2023-07-24T09:27:08;24.40;62.90
22787;DHT22;63134;52.020;4.714;2023-07-24T09:29:55;24.40;62.60
22787;DHT22;63134;52.020;4.714;2023-07-24T09:32:41;24.70;62.40
22787;DHT22;63134;52.020;4.714;2023-07-24T09:35:27;24.90;62.10
22787;DHT22;63134;52.020;4.714;2023-07-24T09:38:15;25.10;61.70
22787;DHT22;63134;52.020;4.714;2023-07-24T09:41:02;25.30;60.60
22787;DHT22;63134;52.020;4.714;2023-07-24T09:43:58;25.60;59.80
22787;DHT22;63134;52.020;4.714;2023-07-24T09:46:44;25.30;58.70
22787;DHT22;63134;52.020;4.714;2023-07-24T09:49:46;25.10;59.20
22787;DHT22;63134;52.020;4.714;2023-07-24T09:52:34;25.10;59.80
22787;DHT22;63134;52.020;4.714;2023-07-24T09:55:25;25.20;60.00
22787;DHT22;63134;52.020;4.714;2023-07-24T09:58:15;25.40;59.20
22787;DHT22;63134;52.020;4.714;2023-07-24T10:01:09;25.70;58.50
22787;DHT22;63134;52.020;4.714;2023-07-24T10:04:01;26.10;58.60
22787;DHT22;63134;52.020;4.714;2023-07-24T10:06:52;26.40;57.80
22787;DHT22;63134;52.020;4.714;2023-07-24T10:09:38;26.50;56.80
22787;DHT22;63134;52.020;4.714;2023-07-24T10:12:24;26.50;56.50
22787;DHT22;63134;52.020;4.714;2023-07-24T10:15:14;26.40;55.80
22787;DHT22;63134;52.020;4.714;2023-07-24T10:18:07;26.00;56.00
22787;DHT22;63134;52.020;4.714;2023-07-24T10:21:25;25.70;56.70
22787;DHT22;63134;52.020;4.714;2023-07-24T10:24:11;25.50;57.40
22787;DHT22;63134;52.020;4.714;2023-07-24T10:27:06;25.30;57.80
22787;DHT22;63134;52.020;4.714;2023-07-24T10:30:03;25.00;58.20
22787;DHT22;63134;52.020;4.714;2023-07-24T10:33:11;24.80;59.00
22787;DHT22;63134;52.020;4.714;2023-07-24T10:36:09;24.60;60.10
22787;DHT22;63134;52.020;4.714;2023-07-24T10:38:56;24.50;60.40
22787;DHT22;63134;52.020;4.714;2023-07-24T10:41:42;24.40;60.90
22787;DHT22;63134;52.020;4.714;2023-07-24T10:44:31;24.30;61.00
22787;DHT22;63134;52.020;4.714;2023-07-24T10:47:17;24.40;60.40
22787;DHT22;63134;52.020;4.714;2023-07-24T10:50:04;24.60;60.70
22787;DHT22;63134;52.020;4.714;2023-07-24T10:52:49;24.80;59.70
22787;DHT22;63134;52.020;4.714;2023-07-24T10:55:35;25.00;59.40
22787;DHT22;63134;52.020;4.714;2023-07-24T10:58:24;25.40;58.70
22787;DHT22;63134;52.020;4.714;2023-07-24T11:01:10;25.60;58.30
22787;DHT22;63134;52.020;4.714;2023-07-24T11:03:56;25.70;57.60
22787;DHT22;63134;52.020;4.714;2023-07-24T11:06:42;25.70;57.10
22787;DHT22;63134;52.020;4.714;2023-07-24T11:09:37;25.90;56.50
22787;DHT22;63134;52.020;4.714;2023-07-24T11:12:25;26.20;55.70
22787;DHT22;63134;52.020;4.714;2023-07-24T11:15:16;26.50;54.70
22787;DHT22;63134;52.020;4.714;2023-07-24T11:18:01;26.80;54.80
22787;DHT22;63134;52.020;4.714;2023-07-24T11:20:56;27.00;52.90
22787;DHT22;63134;52.020;4.714;2023-07-24T11:23:50;27.10;52.20
22787;DHT22;63134;52.020;4.714;2023-07-24T11:26:35;27.00;53.10
22787;DHT22;63134;52.020;4.714;2023-07-24T11:29:21;26.80;53.20
22787;DHT22;63134;52.020;4.714;2023-07-24T11:32:06;26.40;53.90
22787;DHT22;63134;52.020;4.714;2023-07-24T11:34:55;26.40;54.40
22787;DHT22;63134;52.020;4.714;2023-07-24T11:37:41;26.40;54.00
22787;DHT22;63134;52.020;4.714;2023-07-24T11:40:42;26.20;54.40
22787;DHT22;63134;52.020;4.714;2023-07-24T11:43:27;26.00;54.10
22787;DHT22;63134;52.020;4.714;2023-07-24T11:46:26;25.60;56.20
22787;DHT22;63134;52.020;4.714;2023-07-24T11:49:14;25.30;57.70
22787;DHT22;63134;52.020;4.714;2023-07-24T11:52:03;25.20;57.50
22787;DHT22;63134;52.020;4.714;2023-07-24T11:54:56;25.20;58.20
22787;DHT22;63134;52.020;4.714;2023-07-24T11:58:00;25.00;58.00
22787;DHT22;63134;52.020;4.714;2023-07-24T12:00:47;24.80;58.00
22787;DHT22;63134;52.020;4.714;2023-07-24T12:03:33;24.60;58.90
22787;DHT22;63134;52.020;4.714;2023-07-24T12:06:18;24.40;59.60
22787;DHT22;63134;52.020;4.714;2023-07-24T12:09:05;24.30;60.20
22787;DHT22;63134;52.020;4.714;2023-07-24T12:11:51;24.30;60.00
22787;DHT22;63134;52.020;4.714;2023-07-24T12:14:36;24.50;60.70
22787;DHT22;63134;52.020;4.714;2023-07-24T12:17:22;24.90;59.60
22787;DHT22;63134;52.020;4.714;2023-07-24T12:20:08;25.10;58.00
22787;DHT22;63134;52.020;4.714;2023-07-24T12:22:58;25.20;57.60
22787;DHT22;63134;52.020;4.714;2023-07-24T12:25:44;25.20;57.90
22787;DHT22;63134;52.020;4.714;2023-07-24T12:28:29;25.30;57.80
22787;DHT22;63134;52.020;4.714;2023-07-24T12:31:15;25.30;57.80
22787;DHT22;63134;52.020;4.714;2023-07-24T12:34:01;25.40;57.80
22787;DHT22;63134;52.020;4.714;2023-07-24T12:36:46;25.30;57.70
22787;DHT22;63134;52.020;4.714;2023-07-24T12:39:33;25.50;57.90
22787;DHT22;63134;52.020;4.714;2023-07-24T12:42:21;26.10;56.80
22787;DHT22;63134;52.020;4.714;2023-07-24T12:45:07;26.40;55.80
22787;DHT22;63134;52.020;4.714;2023-07-24T12:47:52;27.50;56.50
22787;DHT22;63134;52.020;4.714;2023-07-24T12:50:40;28.50;53.40
22787;DHT22;63134;52.020;4.714;2023-07-24T12:53:26;28.60;51.30
22787;DHT22;63134;52.020;4.714;2023-07-24T12:56:23;28.40;50.90
22787;DHT22;63134;52.020;4.714;2023-07-24T12:59:08;28.30;50.60
22787;DHT22;63134;52.020;4.714;2023-07-24T13:01:54;28.70;51.30
22787;DHT22;63134;52.020;4.714;2023-07-24T13:04:40;29.60;49.30
22787;DHT22;63134;52.020;4.714;2023-07-24T13:07:26;29.30;49.00
22787;DHT22;63134;52.020;4.714;2023-07-24T13:10:12;28.70;49.90
22787;DHT22;63134;52.020;4.714;2023-07-24T13:12:57;27.80;51.40
22787;DHT22;63134;52.020;4.714;2023-07-24T13:15:43;27.00;52.90
22787;DHT22;63134;52.020;4.714;2023-07-24T13:18:31;26.40;54.40
22787;DHT22;63134;52.020;4.714;2023-07-24T13:21:17;26.10;55.70
22787;DHT22;63134;52.020;4.714;2023-07-24T13:24:05;26.00;58.00
22787;DHT22;63134;52.020;4.714;2023-07-24T13:26:54;25.90;58.20
22787;DHT22;63134;52.020;4.714;2023-07-24T13:29:39;25.50;57.40
22787;DHT22;63134;52.020;4.714;2023-07-24T13:32:24;25.20;58.40
22787;DHT22;63134;52.020;4.714;2023-07-24T13:35:10;24.90;58.80
22787;DHT22;63134;52.020;4.714;2023-07-24T13:37:55;24.70;59.20
22787;DHT22;63134;52.020;4.714;2023-07-24T13:40:41;24.50;59.20
22787;DHT22;63134;52.020;4.714;2023-07-24T13:43:27;24.20;59.30
22787;DHT22;63134;52.020;4.714;2023-07-24T13:46:12;24.20;60.20
22787;DHT22;63134;52.020;4.714;2023-07-24T13:48:58;24.50;60.10
22787;DHT22;63134;52.020;4.714;2023-07-24T13:51:44;24.90;59.40
22787;DHT22;63134;52.020;4.714;2023-07-24T13:54:29;25.10;57.60
22787;DHT22;63134;52.020;4.714;2023-07-24T13:57:14;25.30;57.20
22787;DHT22;63134;52.020;4.714;2023-07-24T14:00:00;25.50;56.50
22787;DHT22;63134;52.020;4.714;2023-07-24T14:02:55;25.70;56.70
22787;DHT22;63134;52.020;4.714;2023-07-24T14:05:41;25.80;55.10
22787;DHT22;63134;52.020;4.714;2023-07-24T14:08:26;28.00;55.10
22787;DHT22;63134;52.020;4.714;2023-07-24T14:11:12;28.40;50.80
22787;DHT22;63134;52.020;4.714;2023-07-24T14:13:57;29.00;49.20
22787;DHT22;63134;52.020;4.714;2023-07-24T14:16:45;28.50;48.60
22787;DHT22;63134;52.020;4.714;2023-07-24T14:19:31;27.60;50.20
22787;DHT22;63134;52.020;4.714;2023-07-24T14:22:16;26.70;52.00
22787;DHT22;63134;52.020;4.714;2023-07-24T14:25:02;26.50;53.80
22787;DHT22;63134;52.020;4.714;2023-07-24T14:27:48;27.00;54.00
22787;DHT22;63134;52.020;4.714;2023-07-24T14:30:33;28.50;53.70
22787;DHT22;63134;52.020;4.714;2023-07-24T14:33:18;28.90;49.30
22787;DHT22;63134;52.020;4.714;2023-07-24T14:36:04;28.80;48.90
22787;DHT22;63134;52.020;4.714;2023-07-24T14:38:49;30.50;49.10
22787;DHT22;63134;52.020;4.714;2023-07-24T14:41:36;30.10;45.70
22787;DHT22;63134;52.020;4.714;2023-07-24T14:44:21;28.60;47.30
22787;DHT22;63134;52.020;4.714;2023-07-24T14:47:07;27.10;50.00
22787;DHT22;63134;52.020;4.714;2023-07-24T14:49:53;26.20;52.30
22787;DHT22;63134;52.020;4.714;2023-07-24T14:52:38;25.70;53.80
22787;DHT22;63134;52.020;4.714;2023-07-24T14:55:24;25.10;55.20
22787;DHT22;63134;52.020;4.714;2023-07-24T14:58:09;24.60;56.30
22787;DHT22;63134;52.020;4.714;2023-07-24T15:00:55;24.20;57.60
22787;DHT22;63134;52.020;4.714;2023-07-24T15:03:40;24.10;58.30
22787;DHT22;63134;52.020;4.714;2023-07-24T15:06:25;24.10;58.70
22787;DHT22;63134;52.020;4.714;2023-07-24T15:09:11;24.50;58.90
22787;DHT22;63134;52.020;4.714;2023-07-24T15:11:57;24.60;57.90
22787;DHT22;63134;52.020;4.714;2023-07-24T15:14:42;25.00;58.10
22787;DHT22;63134;52.020;4.714;2023-07-24T15:17:28;25.40;56.70
22787;DHT22;63134;52.020;4.714;2023-07-24T15:20:14;26.10;55.60
22787;DHT22;63134;52.020;4.714;2023-07-24T15:23:01;26.70;54.20
22787;DHT22;63134;52.020;4.714;2023-07-24T15:25:47;27.50;52.80
22787;DHT22;63134;52.020;4.714;2023-07-24T15:28:32;27.10;52.30
22787;DHT22;63134;52.020;4.714;2023-07-24T15:31:18;26.10;52.20
22787;DHT22;63134;52.020;4.714;2023-07-24T15:34:04;25.10;54.00
22787;DHT22;63134;52.020;4.714;2023-07-24T15:36:50;24.40;56.00
22787;DHT22;63134;52.020;4.714;2023-07-24T15:39:36;23.90;57.20
22787;DHT22;63134;52.020;4.714;2023-07-24T15:42:22;23.70;57.70
22787;DHT22;63134;52.020;4.714;2023-07-24T15:45:08;23.40;58.10
22787;DHT22;63134;52.020;4.714;2023-07-24T15:47:53;23.10;58.40
22787;DHT22;63134;52.020;4.714;2023-07-24T15:50:39;22.70;58.90
22787;DHT22;63134;52.020;4.714;2023-07-24T15:53:25;22.20;59.80
22787;DHT22;63134;52.020;4.714;2023-07-24T15:56:11;21.70;61.10
22787;DHT22;63134;52.020;4.714;2023-07-24T15:58:57;21.40;62.70
22787;DHT22;63134;52.020;4.714;2023-07-24T16:01:43;21.20;63.10
22787;DHT22;63134;52.020;4.714;2023-07-24T16:04:28;21.00;63.40
22787;DHT22;63134;52.020;4.714;2023-07-24T16:07:14;21.00;64.00
22787;DHT22;63134;52.020;4.714;2023-07-24T16:09:59;20.90;64.50
22787;DHT22;63134;52.020;4.714;2023-07-24T16:12:45;20.90;65.20
22787;DHT22;63134;52.020;4.714;2023-07-24T16:15:31;20.80;66.00
22787;DHT22;63134;52.020;4.714;2023-07-24T16:18:22;20.80;66.20
22787;DHT22;63134;52.020;4.714;2023-07-24T16:21:08;20.60;66.40
22787;DHT22;63134;52.020;4.714;2023-07-24T16:23:54;20.70;67.10
22787;DHT22;63134;52.020;4.714;2023-07-24T16:26:39;20.90;67.10
22787;DHT22;63134;52.020;4.714;2023-07-24T16:29:25;21.00;67.00
22787;DHT22;63134;52.020;4.714;2023-07-24T16:32:11;21.10;66.70
22787;DHT22;63134;52.020;4.714;2023-07-24T16:34:56;21.20;66.60
22787;DHT22;63134;52.020;4.714;2023-07-24T16:37:42;21.40;67.10
22787;DHT22;63134;52.020;4.714;2023-07-24T16:40:41;21.60;66.40
22787;DHT22;63134;52.020;4.714;2023-07-24T16:43:27;22.00;64.40
22787;DHT22;63134;52.020;4.714;2023-07-24T16:46:12;22.70;61.70
22787;DHT22;63134;52.020;4.714;2023-07-24T16:49:04;23.20;60.40
22787;DHT22;63134;52.020;4.714;2023-07-24T16:51:54;25.40;57.10
22787;DHT22;63134;52.020;4.714;2023-07-24T16:54:40;26.20;52.60
22787;DHT22;63134;52.020;4.714;2023-07-24T16:57:25;25.70;51.90
22787;DHT22;63134;52.020;4.714;2023-07-24T17:00:12;25.70;53.10
22787;DHT22;63134;52.020;4.714;2023-07-24T17:03:00;25.70;51.10
22787;DHT22;63134;52.020;4.714;2023-07-24T17:05:46;25.50;51.20
22787;DHT22;63134;52.020;4.714;2023-07-24T17:08:32;27.80;51.10
22787;DHT22;63134;52.020;4.714;2023-07-24T17:11:17;28.10;46.90
22787;DHT22;63134;52.020;4.714;2023-07-24T17:14:03;26.70;47.80
22787;DHT22;63134;52.020;4.714;2023-07-24T17:16:48;25.50;49.70
22787;DHT22;63134;52.020;4.714;2023-07-24T17:19:34;26.70;51.50
22787;DHT22;63134;52.020;4.714;2023-07-24T17:22:19;28.90;46.40
22787;DHT22;63134;52.020;4.714;2023-07-24T17:25:05;29.90;44.40
22787;DHT22;63134;52.020;4.714;2023-07-24T17:27:51;30.50;43.90
22787;DHT22;63134;52.020;4.714;2023-07-24T17:30:41;30.90;41.80
22787;DHT22;63134;52.020;4.714;2023-07-24T17:33:29;28.70;42.80
22787;DHT22;63134;52.020;4.714;2023-07-24T17:36:15;26.70;45.00
22787;DHT22;63134;52.020;4.714;2023-07-24T17:39:00;25.30;48.00